createdAt,value
2018-09-29T00:00:11.814Z,0.00
2018-09-29T00:01:11.751Z,0.00
2018-09-29T00:02:11.688Z,0.00
2018-09-29T00:03:11.670Z,0.00
2018-09-29T00:04:11.565Z,0.00
2018-09-29T00:05:11.499Z,0.00
2018-09-29T00:06:11.442Z,0.00
2018-09-29T00:07:11.375Z,0.00
2018-09-29T00:08:11.312Z,0.00
2018-09-29T00:09:11.248Z,0.00
2018-09-29T00:10:11.201Z,0.00
2018-09-29T00:11:11.133Z,0.00
2018-09-29T00:12:11.060Z,0.00
2018-09-29T00:13:10.993Z,0.00
2018-09-29T00:14:10.935Z,0.00
2018-09-29T00:15:10.877Z,0.00
2018-09-29T00:16:10.815Z,0.00
2018-09-29T00:17:10.748Z,0.00
2018-09-29T00:18:10.686Z,0.00
2018-09-29T00:19:10.625Z,0.00
2018-09-29T00:20:10.557Z,0.00
2018-09-29T00:21:10.497Z,0.00
2018-09-29T00:22:10.437Z,0.00
2018-09-29T00:23:10.372Z,0.00
2018-09-29T00:24:10.308Z,0.00
2018-09-29T00:25:10.246Z,0.00
2018-09-29T00:26:10.182Z,0.00
2018-09-29T00:27:10.120Z,0.00
2018-09-29T00:28:10.065Z,0.00
2018-09-29T00:29:09.995Z,0.00
2018-09-29T00:30:09.933Z,0.00
2018-09-29T00:31:09.870Z,0.00
2018-09-29T00:32:09.819Z,0.00
2018-09-29T00:33:09.745Z,0.00
2018-09-29T00:34:09.681Z,0.00
2018-09-29T00:35:09.618Z,0.00
2018-09-29T00:36:09.556Z,0.00
2018-09-29T00:37:09.493Z,0.00
2018-09-29T00:38:09.432Z,0.00
2018-09-29T00:39:09.365Z,0.00
2018-09-29T00:40:09.305Z,0.00
2018-09-29T00:41:09.246Z,0.00
2018-09-29T00:42:09.180Z,0.00
2018-09-29T00:43:09.118Z,0.00
2018-09-29T00:44:09.053Z,0.00
2018-09-29T00:45:08.992Z,0.00
2018-09-29T00:46:08.930Z,0.00
2018-09-29T00:47:08.865Z,0.00
2018-09-29T00:48:08.802Z,0.00
2018-09-29T00:49:08.740Z,0.00
2018-09-29T00:50:08.677Z,0.00
2018-09-29T00:51:08.616Z,0.00
2018-09-29T00:52:08.551Z,0.00
2018-09-29T00:53:08.488Z,0.00
2018-09-29T00:54:08.425Z,0.00
2018-09-29T00:55:08.359Z,0.00
2018-09-29T00:56:08.298Z,0.00
2018-09-29T00:57:08.242Z,0.00
2018-09-29T00:58:08.179Z,0.00
2018-09-29T00:59:08.110Z,0.00
2018-09-29T01:00:08.048Z,0.00
2018-09-29T01:01:07.985Z,0.00
2018-09-29T01:02:07.921Z,0.00
2018-09-29T01:03:07.860Z,0.00
2018-09-29T01:04:07.800Z,0.00
2018-09-29T01:05:07.734Z,0.00
2018-09-29T01:06:07.671Z,0.00
2018-09-29T01:07:07.608Z,0.00
2018-09-29T01:08:07.545Z,0.00
2018-09-29T01:09:07.483Z,0.00
2018-09-29T01:10:07.422Z,0.00
2018-09-29T01:11:07.360Z,0.00
2018-09-29T01:12:07.296Z,0.00
2018-09-29T01:13:07.230Z,0.00
2018-09-29T01:14:07.169Z,0.00
2018-09-29T01:15:07.105Z,0.00
2018-09-29T01:16:07.042Z,0.00
2018-09-29T01:17:06.978Z,0.00
2018-09-29T01:18:06.920Z,0.00
2018-09-29T01:19:06.853Z,0.00
2018-09-29T01:20:06.792Z,0.00
2018-09-29T01:21:06.729Z,0.00
2018-09-29T01:22:06.665Z,0.00
2018-09-29T01:23:06.603Z,0.00
2018-09-29T01:24:06.541Z,0.00
2018-09-29T01:25:06.490Z,0.00
2018-09-29T01:26:06.423Z,0.00
2018-09-29T01:27:06.353Z,0.00
2018-09-29T01:28:06.289Z,0.00
2018-09-29T01:29:06.227Z,0.00
2018-09-29T01:30:06.163Z,0.00
2018-09-29T01:31:06.124Z,0.00
2018-09-29T01:32:06.037Z,0.00
2018-09-29T01:33:05.984Z,0.00
2018-09-29T01:34:05.911Z,0.00
2018-09-29T01:35:05.847Z,0.00
2018-09-29T01:36:05.785Z,0.00
2018-09-29T01:37:05.721Z,0.00
2018-09-29T01:38:05.672Z,0.00
2018-09-29T01:39:05.596Z,0.00
2018-09-29T01:40:05.535Z,0.00
2018-09-29T01:41:05.474Z,0.00
2018-09-29T01:42:05.409Z,0.00
2018-09-29T01:43:05.352Z,0.00
2018-09-29T01:44:05.282Z,0.00
2018-09-29T01:45:05.220Z,0.00
2018-09-29T01:46:05.157Z,0.00
2018-09-29T01:47:05.105Z,0.00
2018-09-29T01:48:05.031Z,0.00
2018-09-29T01:49:04.968Z,0.00
2018-09-29T01:50:04.917Z,0.00
2018-09-29T01:51:04.843Z,0.00
2018-09-29T01:52:04.779Z,0.00
2018-09-29T01:53:04.724Z,0.00
2018-09-29T01:54:04.651Z,0.00
2018-09-29T01:55:04.590Z,0.00
2018-09-29T01:56:04.528Z,0.00
2018-09-29T01:57:04.465Z,0.00
2018-09-29T01:58:04.401Z,0.00
2018-09-29T01:59:04.341Z,0.00
2018-09-29T02:00:04.292Z,0.00
2018-09-29T02:01:04.212Z,0.00
2018-09-29T02:02:04.149Z,0.00
2018-09-29T02:03:04.086Z,0.00
2018-09-29T02:04:04.024Z,0.00
2018-09-29T02:05:03.965Z,0.00
2018-09-29T02:06:03.898Z,0.00
2018-09-29T02:07:03.836Z,0.00
2018-09-29T02:08:03.832Z,0.00
2018-09-29T02:09:03.717Z,0.00
2018-09-29T02:10:03.648Z,0.00
2018-09-29T02:11:03.583Z,0.00
2018-09-29T02:12:03.541Z,0.00
2018-09-29T02:13:03.459Z,0.00
2018-09-29T02:14:03.418Z,0.00
2018-09-29T02:15:03.330Z,0.00
2018-09-29T02:16:03.266Z,0.00
2018-09-29T02:17:03.216Z,0.00
2018-09-29T02:18:03.141Z,0.00
2018-09-29T02:19:03.076Z,0.00
2018-09-29T02:20:03.015Z,0.00
2018-09-29T02:21:02.959Z,0.00
2018-09-29T02:22:02.891Z,0.00
2018-09-29T02:23:02.825Z,0.00
2018-09-29T02:24:02.761Z,0.00
2018-09-29T02:25:02.699Z,0.00
2018-09-29T02:26:02.636Z,0.00
2018-09-29T02:27:02.573Z,0.00
2018-09-29T02:28:02.509Z,0.00
2018-09-29T02:29:02.519Z,0.00
2018-09-29T02:30:02.387Z,0.00
2018-09-29T02:31:02.324Z,0.00
2018-09-29T02:32:02.266Z,0.00
2018-09-29T02:33:02.198Z,0.00
2018-09-29T02:34:02.131Z,0.00
2018-09-29T02:35:02.072Z,0.00
2018-09-29T02:36:02.004Z,0.00
2018-09-29T02:37:01.943Z,0.00
2018-09-29T02:38:01.874Z,0.00
2018-09-29T02:39:01.815Z,0.00
2018-09-29T02:40:01.755Z,0.00
2018-09-29T02:41:01.689Z,0.00
2018-09-29T02:42:01.625Z,0.00
2018-09-29T02:43:01.561Z,0.00
2018-09-29T02:44:01.500Z,0.00
2018-09-29T02:45:01.436Z,0.00
2018-09-29T02:46:01.371Z,0.00
2018-09-29T02:47:01.309Z,0.00
2018-09-29T02:48:01.249Z,0.00
2018-09-29T02:49:01.184Z,0.00
2018-09-29T02:50:01.124Z,0.00
2018-09-29T02:51:01.054Z,0.00
2018-09-29T02:52:00.993Z,0.00
2018-09-29T02:53:00.933Z,0.00
2018-09-29T02:54:00.868Z,0.00
2018-09-29T02:55:00.806Z,0.00
2018-09-29T02:56:00.756Z,0.00
2018-09-29T02:57:00.677Z,0.00
2018-09-29T02:58:00.615Z,0.00
2018-09-29T02:59:00.565Z,0.00
2018-09-29T03:00:00.488Z,0.00
2018-09-29T03:01:00.427Z,0.00
2018-09-29T03:02:00.361Z,0.00
2018-09-29T03:03:00.294Z,0.00
2018-09-29T03:04:00.233Z,0.00
2018-09-29T03:05:00.170Z,0.00
2018-09-29T03:06:00.105Z,0.00
2018-09-29T03:07:00.093Z,0.00
2018-09-29T03:07:59.980Z,0.00
2018-09-29T03:08:59.915Z,0.00
2018-09-29T03:09:59.853Z,0.00
2018-09-29T03:10:59.791Z,0.00
2018-09-29T03:11:59.739Z,0.00
2018-09-29T03:12:59.664Z,0.00
2018-09-29T03:13:59.602Z,0.00
2018-09-29T03:14:59.536Z,0.00
2018-09-29T03:15:59.474Z,0.00
2018-09-29T03:16:59.411Z,0.00
2018-09-29T03:17:59.346Z,0.00
2018-09-29T03:18:59.285Z,0.00
2018-09-29T03:19:59.220Z,0.00
2018-09-29T03:20:59.157Z,0.00
2018-09-29T03:21:59.093Z,0.00
2018-09-29T03:22:59.076Z,0.00
2018-09-29T03:23:58.968Z,0.00
2018-09-29T03:24:58.903Z,0.00
2018-09-29T03:25:58.838Z,0.00
2018-09-29T03:26:58.777Z,0.00
2018-09-29T03:27:58.713Z,0.00
2018-09-29T03:28:58.650Z,0.00
2018-09-29T03:29:58.585Z,0.00
2018-09-29T03:30:58.524Z,0.00
2018-09-29T03:31:58.589Z,0.00
2018-09-29T03:32:58.395Z,0.00
2018-09-29T03:33:58.341Z,0.00
2018-09-29T03:34:58.269Z,0.00
2018-09-29T03:35:58.211Z,0.00
2018-09-29T03:36:58.143Z,0.00
2018-09-29T03:37:58.077Z,0.00
2018-09-29T03:38:58.014Z,0.00
2018-09-29T03:39:57.951Z,0.00
2018-09-29T03:40:57.888Z,0.00
2018-09-29T03:41:57.825Z,0.00
2018-09-29T03:42:57.766Z,0.00
2018-09-29T03:43:57.697Z,0.00
2018-09-29T03:44:57.635Z,0.00
2018-09-29T03:45:57.572Z,0.00
2018-09-29T03:46:57.508Z,0.00
2018-09-29T03:47:57.442Z,0.00
2018-09-29T03:48:57.380Z,0.00
2018-09-29T03:49:57.326Z,0.00
2018-09-29T03:50:57.251Z,0.00
2018-09-29T03:51:57.189Z,0.00
2018-09-29T03:52:57.123Z,0.00
2018-09-29T03:53:57.060Z,0.00
2018-09-29T03:54:56.999Z,0.00
2018-09-29T03:55:56.933Z,0.00
2018-09-29T03:56:56.872Z,0.00
2018-09-29T03:57:56.805Z,0.00
2018-09-29T03:58:56.748Z,0.00
2018-09-29T03:59:56.679Z,0.00
2018-09-29T04:00:56.632Z,0.00
2018-09-29T04:01:56.554Z,0.00
2018-09-29T04:02:56.487Z,0.00
2018-09-29T04:03:56.425Z,0.00
2018-09-29T04:04:56.363Z,0.00
2018-09-29T04:05:56.301Z,0.00
2018-09-29T04:06:56.235Z,0.00
2018-09-29T04:07:56.170Z,0.00
2018-09-29T04:08:56.107Z,0.00
2018-09-29T04:09:56.041Z,0.00
2018-09-29T04:10:55.979Z,0.00
2018-09-29T04:11:55.916Z,0.00
2018-09-29T04:12:55.850Z,0.00
2018-09-29T04:13:55.900Z,0.00
2018-09-29T04:14:55.723Z,0.00
2018-09-29T04:15:55.661Z,0.00
2018-09-29T04:16:55.596Z,0.00
2018-09-29T04:17:55.533Z,0.00
2018-09-29T04:18:55.473Z,0.00
2018-09-29T04:19:55.405Z,0.00
2018-09-29T04:20:55.341Z,0.00
2018-09-29T04:21:55.278Z,0.00
2018-09-29T04:22:55.213Z,0.00
2018-09-29T04:23:55.174Z,0.00
2018-09-29T04:24:55.084Z,0.00
2018-09-29T04:25:55.024Z,0.00
2018-09-29T04:26:54.962Z,0.00
2018-09-29T04:27:54.906Z,0.00
2018-09-29T04:28:54.833Z,0.00
2018-09-29T04:29:54.768Z,0.00
2018-09-29T04:30:54.703Z,0.00
2018-09-29T04:31:54.638Z,0.00
2018-09-29T04:32:54.576Z,0.00
2018-09-29T04:33:54.513Z,0.00
2018-09-29T04:34:54.452Z,0.00
2018-09-29T04:35:54.385Z,0.00
2018-09-29T04:36:54.323Z,0.00
2018-09-29T04:37:54.256Z,0.00
2018-09-29T04:38:54.194Z,0.00
2018-09-29T04:39:54.132Z,0.00
2018-09-29T04:40:54.065Z,0.00
2018-09-29T04:41:54.005Z,0.00
2018-09-29T04:42:53.937Z,0.00
2018-09-29T04:43:53.879Z,0.00
2018-09-29T04:44:53.811Z,0.00
2018-09-29T04:45:53.748Z,0.00
2018-09-29T04:46:53.697Z,0.00
2018-09-29T04:47:53.620Z,0.00
2018-09-29T04:48:53.554Z,0.00
2018-09-29T04:49:53.489Z,4.00
2018-09-29T04:50:53.427Z,4.00
2018-09-29T04:51:53.364Z,0.00
2018-09-29T04:52:53.300Z,4.00
2018-09-29T04:53:53.235Z,4.00
2018-09-29T04:54:53.172Z,4.00
2018-09-29T04:55:53.109Z,4.00
2018-09-29T04:56:53.044Z,4.00
2018-09-29T04:57:52.982Z,8.00
2018-09-29T04:58:52.915Z,12.00
2018-09-29T04:59:52.870Z,12.00
2018-09-29T05:00:52.789Z,12.00
2018-09-29T05:01:52.729Z,20.00
2018-09-29T05:02:52.678Z,20.00
2018-09-29T05:03:52.597Z,24.00
2018-09-29T05:04:52.532Z,28.00
2018-09-29T05:05:52.479Z,32.00
2018-09-29T05:06:52.404Z,32.00
2018-09-29T05:07:52.356Z,40.00
2018-09-29T05:08:52.311Z,44.00
2018-09-29T05:09:52.247Z,52.00
2018-09-29T05:10:52.161Z,52.00
2018-09-29T05:11:52.086Z,60.00
2018-09-29T05:12:52.021Z,64.00
2018-09-29T05:13:51.973Z,68.00
2018-09-29T05:14:51.895Z,76.00
2018-09-29T05:15:51.911Z,84.00
2018-09-29T05:16:51.841Z,92.00
2018-09-29T05:17:51.712Z,104.00
2018-09-29T05:18:51.674Z,112.00
2018-09-29T05:19:51.629Z,120.00
2018-09-29T05:20:51.526Z,132.00
2018-09-29T05:21:51.466Z,144.00
2018-09-29T05:22:51.429Z,152.00
2018-09-29T05:23:51.318Z,160.00
2018-09-29T05:24:51.253Z,172.00
2018-09-29T05:25:51.193Z,176.00
2018-09-29T05:26:51.127Z,184.00
2018-09-29T05:27:51.061Z,192.00
2018-09-29T05:28:50.999Z,200.00
2018-09-29T05:29:50.933Z,212.00
2018-09-29T05:30:50.921Z,224.00
2018-09-29T05:31:50.804Z,236.00
2018-09-29T05:32:50.741Z,252.00
2018-09-29T05:33:50.675Z,268.00
2018-09-29T05:34:50.612Z,280.00
2018-09-29T05:35:50.547Z,288.00
2018-09-29T05:36:50.485Z,296.00
2018-09-29T05:37:50.421Z,304.00
2018-09-29T05:38:50.354Z,316.00
2018-09-29T05:39:50.291Z,328.00
2018-09-29T05:40:50.228Z,332.00
2018-09-29T05:41:50.163Z,336.00
2018-09-29T05:42:50.099Z,340.00
2018-09-29T05:43:50.035Z,336.00
2018-09-29T05:44:49.970Z,332.00
2018-09-29T05:45:49.904Z,332.00
2018-09-29T05:46:49.840Z,328.00
2018-09-29T05:47:49.777Z,328.00
2018-09-29T05:48:49.710Z,332.00
2018-09-29T05:49:49.648Z,340.00
2018-09-29T05:50:49.585Z,344.00
2018-09-29T05:51:49.522Z,352.00
2018-09-29T05:52:49.457Z,360.00
2018-09-29T05:53:49.406Z,372.00
2018-09-29T05:54:49.328Z,380.00
2018-09-29T05:55:49.265Z,392.00
2018-09-29T05:56:49.200Z,412.00
2018-09-29T05:57:49.134Z,428.00
2018-09-29T05:58:49.072Z,444.00
2018-09-29T05:59:49.008Z,460.00
2018-09-29T06:00:48.947Z,476.00
2018-09-29T06:01:48.876Z,484.00
2018-09-29T06:02:48.814Z,492.00
2018-09-29T06:03:48.750Z,496.00
2018-09-29T06:04:48.686Z,504.00
2018-09-29T06:05:48.681Z,516.00
2018-09-29T06:06:48.570Z,548.00
2018-09-29T06:07:48.494Z,624.00
2018-09-29T06:08:48.430Z,712.00
2018-09-29T06:09:48.367Z,816.00
2018-09-29T06:10:48.300Z,868.00
2018-09-29T06:11:48.233Z,800.00
2018-09-29T06:12:48.173Z,868.00
2018-09-29T06:13:48.106Z,848.00
2018-09-29T06:14:48.045Z,904.00
2018-09-29T06:15:47.979Z,804.00
2018-09-29T06:16:47.916Z,856.00
2018-09-29T06:17:47.852Z,880.00
2018-09-29T06:18:47.787Z,912.00
2018-09-29T06:19:47.721Z,840.00
2018-09-29T06:20:47.684Z,868.00
2018-09-29T06:21:47.592Z,944.00
2018-09-29T06:22:47.578Z,904.00
2018-09-29T06:23:47.467Z,952.00
2018-09-29T06:24:47.398Z,1052.00
2018-09-29T06:25:47.338Z,916.00
2018-09-29T06:26:47.273Z,948.00
2018-09-29T06:27:47.222Z,960.00
2018-09-29T06:28:47.145Z,904.00
2018-09-29T06:29:47.128Z,880.00
2018-09-29T06:30:47.016Z,876.00
2018-09-29T06:31:46.951Z,868.00
2018-09-29T06:32:46.888Z,836.00
2018-09-29T06:33:46.822Z,808.00
2018-09-29T06:34:46.758Z,812.00
2018-09-29T06:35:46.697Z,844.00
2018-09-29T06:36:46.684Z,872.00
2018-09-29T06:37:46.565Z,844.00
2018-09-29T06:38:46.503Z,820.00
2018-09-29T06:39:46.437Z,820.00
2018-09-29T06:40:46.418Z,788.00
2018-09-29T06:41:46.310Z,748.00
2018-09-29T06:42:46.244Z,728.00
2018-09-29T06:43:46.184Z,688.00
2018-09-29T06:44:46.119Z,700.00
2018-09-29T06:45:46.054Z,700.00
2018-09-29T06:46:45.987Z,684.00
2018-09-29T06:47:45.934Z,656.00
2018-09-29T06:48:45.857Z,632.00
2018-09-29T06:49:45.797Z,652.00
2018-09-29T06:50:45.729Z,664.00
2018-09-29T06:51:45.669Z,660.00
2018-09-29T06:52:45.605Z,644.00
2018-09-29T06:53:45.540Z,652.00
2018-09-29T06:54:45.475Z,664.00
2018-09-29T06:55:45.416Z,660.00
2018-09-29T06:56:45.348Z,648.00
2018-09-29T06:57:45.287Z,676.00
2018-09-29T06:58:45.219Z,676.00
2018-09-29T06:59:45.155Z,652.00
2018-09-29T07:00:45.092Z,672.00
2018-09-29T07:01:45.027Z,628.00
2018-09-29T07:02:44.963Z,624.00
2018-09-29T07:03:44.901Z,656.00
2018-09-29T07:04:44.834Z,732.00
2018-09-29T07:05:44.770Z,780.00
2018-09-29T07:06:44.708Z,796.00
2018-09-29T07:07:44.643Z,832.00
2018-09-29T07:08:44.579Z,880.00
2018-09-29T07:09:44.514Z,976.00
2018-09-29T07:10:44.452Z,1036.00
2018-09-29T07:11:44.387Z,1008.00
2018-09-29T07:12:44.330Z,964.00
2018-09-29T07:13:44.259Z,932.00
2018-09-29T07:14:44.194Z,844.00
2018-09-29T07:15:44.132Z,912.00
2018-09-29T07:16:44.068Z,976.00
2018-09-29T07:17:44.007Z,1016.00
2018-09-29T07:18:43.939Z,1064.00
2018-09-29T07:19:43.880Z,1192.00
2018-09-29T07:20:43.861Z,1220.00
2018-09-29T07:21:43.795Z,1228.00
2018-09-29T07:22:43.684Z,1268.00
2018-09-29T07:23:43.620Z,1256.00
2018-09-29T07:24:43.555Z,1240.00
2018-09-29T07:25:43.492Z,1260.00
2018-09-29T07:26:43.429Z,1340.00
2018-09-29T07:27:43.366Z,1412.00
2018-09-29T07:28:43.306Z,1632.00
2018-09-29T07:29:43.239Z,1740.00
2018-09-29T07:30:43.175Z,2004.00
2018-09-29T07:31:43.111Z,2016.00
2018-09-29T07:32:43.048Z,2048.00
2018-09-29T07:33:42.985Z,2128.00
2018-09-29T07:34:42.921Z,2236.00
2018-09-29T07:35:42.857Z,2340.00
2018-09-29T07:36:42.794Z,2052.00
2018-09-29T07:37:42.728Z,2084.00
2018-09-29T07:38:42.662Z,2248.00
2018-09-29T07:39:42.604Z,2176.00
2018-09-29T07:40:42.538Z,2244.00
2018-09-29T07:41:42.475Z,2468.00
2018-09-29T07:42:42.415Z,2752.00
2018-09-29T07:43:42.349Z,2660.00
2018-09-29T07:44:42.284Z,2572.00
2018-09-29T07:45:42.223Z,2400.00
2018-09-29T07:46:42.161Z,2460.00
2018-09-29T07:47:42.096Z,2072.00
2018-09-29T07:48:42.030Z,1852.00
2018-09-29T07:49:41.970Z,1548.00
2018-09-29T07:50:41.904Z,1488.00
2018-09-29T07:51:41.842Z,1560.00
2018-09-29T07:52:41.778Z,1696.00
2018-09-29T07:53:41.713Z,1900.00
2018-09-29T07:54:41.675Z,1896.00
2018-09-29T07:55:41.591Z,2108.00
2018-09-29T07:56:41.529Z,2364.00
2018-09-29T07:57:41.459Z,2544.00
2018-09-29T07:58:41.396Z,2528.00
2018-09-29T07:59:41.337Z,2632.00
2018-09-29T08:00:41.273Z,2492.00
2018-09-29T08:01:41.208Z,2392.00
2018-09-29T08:02:41.145Z,2372.00
2018-09-29T08:03:41.082Z,2200.00
2018-09-29T08:04:41.020Z,2196.00
2018-09-29T08:05:40.959Z,2344.00
2018-09-29T08:06:40.891Z,2332.00
2018-09-29T08:07:40.827Z,2308.00
2018-09-29T08:08:40.765Z,2292.00
2018-09-29T08:09:40.700Z,2388.00
2018-09-29T08:10:40.636Z,2452.00
2018-09-29T08:11:40.572Z,2412.00
2018-09-29T08:12:40.512Z,2304.00
2018-09-29T08:13:40.448Z,2176.00
2018-09-29T08:14:40.384Z,2244.00
2018-09-29T08:15:40.324Z,2384.00
2018-09-29T08:16:40.260Z,2376.00
2018-09-29T08:17:40.196Z,2392.00
2018-09-29T08:18:40.131Z,2468.00
2018-09-29T08:19:40.071Z,2444.00
2018-09-29T08:20:40.006Z,2320.00
2018-09-29T08:21:39.940Z,2160.00
2018-09-29T08:22:39.877Z,1968.00
2018-09-29T08:23:39.816Z,1896.00
2018-09-29T08:24:39.752Z,1852.00
2018-09-29T08:25:39.690Z,1788.00
2018-09-29T08:26:39.627Z,1772.00
2018-09-29T08:27:39.565Z,1748.00
2018-09-29T08:28:39.499Z,1704.00
2018-09-29T08:29:39.438Z,1692.00
2018-09-29T08:30:39.372Z,1720.00
2018-09-29T08:31:39.310Z,1696.00
2018-09-29T08:32:39.249Z,1724.00
2018-09-29T08:33:39.183Z,1720.00
2018-09-29T08:34:39.119Z,1748.00
2018-09-29T08:35:39.056Z,1788.00
2018-09-29T08:36:38.995Z,1776.00
2018-09-29T08:37:38.969Z,1780.00
2018-09-29T08:38:38.867Z,1764.00
2018-09-29T08:39:38.804Z,1748.00
2018-09-29T08:40:38.744Z,1748.00
2018-09-29T08:41:38.678Z,1736.00
2018-09-29T08:42:38.613Z,1768.00
2018-09-29T08:43:38.550Z,1784.00
2018-09-29T08:44:38.487Z,1752.00
2018-09-29T08:45:38.425Z,1776.00
2018-09-29T08:46:38.371Z,1796.00
2018-09-29T08:47:38.302Z,1788.00
2018-09-29T08:48:38.235Z,1788.00
2018-09-29T08:49:38.172Z,1780.00
2018-09-29T08:50:38.108Z,1788.00
2018-09-29T08:51:38.046Z,1796.00
2018-09-29T08:52:37.984Z,1812.00
2018-09-29T08:53:37.990Z,1824.00
2018-09-29T08:54:37.858Z,1836.00
2018-09-29T08:55:37.800Z,1844.00
2018-09-29T08:56:37.731Z,1864.00
2018-09-29T08:57:37.668Z,1860.00
2018-09-29T08:58:37.605Z,1848.00
2018-09-29T08:59:37.545Z,1864.00
2018-09-29T09:00:37.480Z,1868.00
2018-09-29T09:01:37.415Z,1856.00
2018-09-29T09:02:37.352Z,1876.00
2018-09-29T09:03:37.285Z,1872.00
2018-09-29T09:04:37.229Z,1912.00
2018-09-29T09:05:37.168Z,1892.00
2018-09-29T09:06:37.103Z,1900.00
2018-09-29T09:07:37.037Z,1812.00
2018-09-29T09:08:36.980Z,1752.00
2018-09-29T09:09:36.911Z,1764.00
2018-09-29T09:10:36.850Z,1788.00
2018-09-29T09:11:36.787Z,1856.00
2018-09-29T09:12:36.724Z,1944.00
2018-09-29T09:13:36.663Z,1944.00
2018-09-29T09:14:36.608Z,1948.00
2018-09-29T09:15:36.534Z,1996.00
2018-09-29T09:16:36.471Z,2076.00
2018-09-29T09:17:36.410Z,2100.00
2018-09-29T09:18:36.349Z,2092.00
2018-09-29T09:19:36.283Z,2048.00
2018-09-29T09:20:36.221Z,2052.00
2018-09-29T09:21:36.159Z,2072.00
2018-09-29T09:22:36.095Z,1952.00
2018-09-29T09:23:36.038Z,2004.00
2018-09-29T09:24:35.968Z,2384.00
2018-09-29T09:25:35.909Z,2492.00
2018-09-29T09:26:35.844Z,2416.00
2018-09-29T09:27:35.782Z,2332.00
2018-09-29T09:28:35.720Z,2404.00
2018-09-29T09:29:35.658Z,2588.00
2018-09-29T09:30:35.593Z,2348.00
2018-09-29T09:31:35.532Z,2092.00
2018-09-29T09:32:35.468Z,2140.00
2018-09-29T09:33:35.407Z,2112.00
2018-09-29T09:34:35.339Z,1992.00
2018-09-29T09:35:35.282Z,1956.00
2018-09-29T09:36:35.222Z,1872.00
2018-09-29T09:37:35.153Z,1956.00
2018-09-29T09:38:35.093Z,1936.00
2018-09-29T09:39:35.035Z,1936.00
2018-09-29T09:40:34.969Z,1932.00
2018-09-29T09:41:34.904Z,1904.00
2018-09-29T09:42:34.844Z,1888.00
2018-09-29T09:43:34.812Z,1852.00
2018-09-29T09:44:34.717Z,1852.00
2018-09-29T09:45:34.657Z,1868.00
2018-09-29T09:46:34.595Z,1836.00
2018-09-29T09:47:34.530Z,1856.00
2018-09-29T09:48:34.467Z,1844.00
2018-09-29T09:49:34.450Z,1824.00
2018-09-29T09:50:34.344Z,1808.00
2018-09-29T09:51:34.286Z,1800.00
2018-09-29T09:52:34.220Z,1796.00
2018-09-29T09:53:34.155Z,1808.00
2018-09-29T09:54:34.095Z,1808.00
2018-09-29T09:55:34.031Z,1820.00
2018-09-29T09:56:33.971Z,1804.00
2018-09-29T09:57:33.905Z,1792.00
2018-09-29T09:58:33.845Z,1780.00
2018-09-29T09:59:33.784Z,1756.00
2018-09-29T10:00:33.718Z,1812.00
2018-09-29T10:01:33.657Z,1800.00
2018-09-29T10:02:33.596Z,1776.00
2018-09-29T10:03:33.533Z,1772.00
2018-09-29T10:04:33.471Z,1804.00
2018-09-29T10:05:33.410Z,1804.00
2018-09-29T10:06:33.373Z,1804.00
2018-09-29T10:07:33.284Z,1792.00
2018-09-29T10:08:33.224Z,1768.00
2018-09-29T10:09:33.158Z,1752.00
2018-09-29T10:10:33.096Z,1756.00
2018-09-29T10:11:33.038Z,1764.00
2018-09-29T10:12:32.973Z,1768.00
2018-09-29T10:13:32.916Z,1776.00
2018-09-29T10:14:32.852Z,1772.00
2018-09-29T10:15:32.789Z,1760.00
2018-09-29T10:16:32.726Z,1768.00
2018-09-29T10:17:32.717Z,1792.00
2018-09-29T10:18:32.601Z,1756.00
2018-09-29T10:19:32.544Z,1800.00
2018-09-29T10:20:32.476Z,1808.00
2018-09-29T10:21:32.413Z,1796.00
2018-09-29T10:22:32.356Z,1808.00
2018-09-29T10:23:32.291Z,1804.00
2018-09-29T10:24:32.230Z,1816.00
2018-09-29T10:25:32.165Z,1820.00
2018-09-29T10:26:32.104Z,1812.00
2018-09-29T10:27:32.048Z,1816.00
2018-09-29T10:28:31.979Z,1808.00
2018-09-29T10:29:31.918Z,1772.00
2018-09-29T10:30:31.857Z,1732.00
2018-09-29T10:31:31.793Z,1760.00
2018-09-29T10:32:31.728Z,1744.00
2018-09-29T10:33:31.668Z,1744.00
2018-09-29T10:34:31.606Z,1768.00
2018-09-29T10:35:31.546Z,1776.00
2018-09-29T10:36:31.485Z,1788.00
2018-09-29T10:37:31.421Z,1780.00
2018-09-29T10:38:31.359Z,1828.00
2018-09-29T10:39:31.298Z,1920.00
2018-09-29T10:40:31.236Z,1816.00
2018-09-29T10:41:31.173Z,1792.00
2018-09-29T10:42:31.112Z,1800.00
2018-09-29T10:43:31.053Z,1984.00
2018-09-29T10:44:30.989Z,2128.00
2018-09-29T10:45:30.927Z,2012.00
2018-09-29T10:46:30.865Z,1956.00
2018-09-29T10:47:30.805Z,1952.00
2018-09-29T10:48:30.741Z,1968.00
2018-09-29T10:49:30.682Z,1948.00
2018-09-29T10:50:30.619Z,1952.00
2018-09-29T10:51:30.556Z,2096.00
2018-09-29T10:52:30.494Z,2368.00
2018-09-29T10:53:30.433Z,2224.00
2018-09-29T10:54:30.371Z,1996.00
2018-09-29T10:55:30.310Z,1920.00
2018-09-29T10:56:30.251Z,1916.00
2018-09-29T10:57:30.186Z,1892.00
2018-09-29T10:58:30.119Z,1928.00
2018-09-29T10:59:30.075Z,1900.00
2018-09-29T11:00:30.004Z,1912.00
2018-09-29T11:01:29.946Z,1988.00
2018-09-29T11:02:29.888Z,2000.00
2018-09-29T11:03:29.817Z,1360.00
2018-09-29T11:04:29.756Z,1856.00
2018-09-29T11:05:29.692Z,1816.00
2018-09-29T11:06:29.631Z,1596.00
2018-09-29T11:07:29.570Z,1812.00
2018-09-29T11:08:29.510Z,1760.00
2018-09-29T11:09:29.446Z,1748.00
2018-09-29T11:10:29.386Z,1696.00
2018-09-29T11:11:29.325Z,1688.00
2018-09-29T11:12:29.263Z,1684.00
2018-09-29T11:13:29.203Z,1680.00
2018-09-29T11:14:29.144Z,1692.00
2018-09-29T11:15:29.077Z,1688.00
2018-09-29T11:16:29.015Z,1704.00
2018-09-29T11:17:28.957Z,1800.00
2018-09-29T11:18:28.892Z,1812.00
2018-09-29T11:19:28.831Z,1816.00
2018-09-29T11:20:28.770Z,1816.00
2018-09-29T11:21:28.707Z,1772.00
2018-09-29T11:22:28.644Z,1688.00
2018-09-29T11:23:28.584Z,1728.00
2018-09-29T11:24:28.522Z,1724.00
2018-09-29T11:25:28.462Z,1672.00
2018-09-29T11:26:28.399Z,1632.00
2018-09-29T11:27:28.341Z,1596.00
2018-09-29T11:28:28.276Z,1560.00
2018-09-29T11:29:28.215Z,1552.00
2018-09-29T11:30:28.150Z,1548.00
2018-09-29T11:31:28.091Z,1552.00
2018-09-29T11:32:28.027Z,1536.00
2018-09-29T11:33:27.967Z,1504.00
2018-09-29T11:34:27.908Z,1492.00
2018-09-29T11:35:27.841Z,1500.00
2018-09-29T11:36:27.782Z,1516.00
2018-09-29T11:37:27.719Z,1520.00
2018-09-29T11:38:27.658Z,1500.00
2018-09-29T11:39:27.695Z,1492.00
2018-09-29T11:40:27.555Z,1472.00
2018-09-29T11:41:27.473Z,1456.00
2018-09-29T11:42:27.431Z,1444.00
2018-09-29T11:43:27.351Z,1428.00
2018-09-29T11:44:27.291Z,1416.00
2018-09-29T11:45:27.226Z,1392.00
2018-09-29T11:46:27.165Z,1384.00
2018-09-29T11:47:27.105Z,1376.00
2018-09-29T11:48:27.041Z,1388.00
2018-09-29T11:49:26.982Z,1384.00
2018-09-29T11:50:26.920Z,1384.00
2018-09-29T11:51:26.857Z,1384.00
2018-09-29T11:52:26.794Z,1364.00
2018-09-29T11:53:26.735Z,1356.00
2018-09-29T11:54:26.671Z,1352.00
2018-09-29T11:55:26.610Z,1344.00
2018-09-29T11:56:26.548Z,1336.00
2018-09-29T11:57:26.487Z,1344.00
2018-09-29T11:58:26.425Z,1324.00
2018-09-29T11:59:26.364Z,1316.00
2018-09-29T12:00:26.305Z,1304.00
2018-09-29T12:01:26.240Z,1288.00
2018-09-29T12:02:26.179Z,1284.00
2018-09-29T12:03:26.117Z,1272.00
2018-09-29T12:04:26.081Z,1272.00
2018-09-29T12:05:25.993Z,1268.00
2018-09-29T12:06:25.971Z,1256.00
2018-09-29T12:07:25.905Z,1236.00
2018-09-29T12:08:25.812Z,1228.00
2018-09-29T12:09:25.759Z,1220.00
2018-09-29T12:10:25.689Z,1216.00
2018-09-29T12:11:25.625Z,1212.00
2018-09-29T12:12:25.565Z,1208.00
2018-09-29T12:13:25.500Z,1196.00
2018-09-29T12:14:25.440Z,1192.00
2018-09-29T12:15:25.373Z,1192.00
2018-09-29T12:16:25.316Z,1180.00
2018-09-29T12:17:25.255Z,1180.00
2018-09-29T12:18:25.195Z,1184.00
2018-09-29T12:19:25.144Z,1184.00
2018-09-29T12:20:25.066Z,1180.00
2018-09-29T12:21:25.008Z,1176.00
2018-09-29T12:22:24.964Z,1176.00
2018-09-29T12:23:24.883Z,1176.00
2018-09-29T12:24:24.823Z,1176.00
2018-09-29T12:25:24.761Z,1176.00
2018-09-29T12:26:24.710Z,1184.00
2018-09-29T12:27:24.922Z,1184.00
2018-09-29T12:28:24.577Z,1192.00
2018-09-29T12:29:24.544Z,1196.00
2018-09-29T12:30:24.454Z,1204.00
2018-09-29T12:31:24.393Z,1212.00
2018-09-29T12:32:24.330Z,1224.00
2018-09-29T12:33:24.270Z,1228.00
2018-09-29T12:34:24.207Z,1236.00
2018-09-29T12:35:24.146Z,1252.00
2018-09-29T12:36:24.082Z,1256.00